sensor_id;sensor_type;location;lat;lon;timestamp;temperature;humidity
7876;DHT22;69649;53.712;9.680;2023-05-10T00:00:08;15.40;45.80
7876;DHT22;69649;53.712;9.680;2023-05-10T00:02:34;15.20;46.10
7876;DHT22;69649;53.712;9.680;2023-05-10T00:05:01;15.20;46.00
7876;DHT22;69649;53.712;9.680;2023-05-10T00:07:27;15.20;46.30
7876;DHT22;69649;53.712;9.680;2023-05-10T00:09:52;15.20;46.20
7876;DHT22;69649;53.712;9.680;2023-05-10T00:12:18;15.30;46.40
7876;DHT22;69649;53.712;9.680;2023-05-10T00:14:44;15.10;46.50
7876;DHT22;69649;53.712;9.680;2023-05-10T00:17:10;15.00;46.80
7876;DHT22;69649;53.712;9.680;2023-05-10T00:19:36;15.00;47.00
7876;DHT22;69649;53.712;9.680;2023-05-10T00:22:01;15.00;47.10
7876;DHT22;69649;53.712;9.680;2023-05-10T00:24:27;14.90;47.20
7876;DHT22;69649;53.712;9.680;2023-05-10T00:26:53;14.90;47.30
7876;DHT22;69649;53.712;9.680;2023-05-10T00:29:19;15.00;47.10
7876;DHT22;69649;53.712;9.680;2023-05-10T00:31:45;14.90;47.50
7876;DHT22;69649;53.712;9.680;2023-05-10T00:34:11;14.90;47.60
7876;DHT22;69649;53.712;9.680;2023-05-10T00:36:37;14.80;47.70
7876;DHT22;69649;53.712;9.680;2023-05-10T00:39:03;14.70;47.90
7876;DHT22;69649;53.712;9.680;2023-05-10T00:41:30;14.70;47.90
7876;DHT22;69649;53.712;9.680;2023-05-10T00:43:57;14.70;48.00
7876;DHT22;69649;53.712;9.680;2023-05-10T00:46:24;14.70;48.00
7876;DHT22;69649;53.712;9.680;2023-05-10T00:48:50;14.70;48.30
7876;DHT22;69649;53.712;9.680;2023-05-10T00:51:16;14.70;48.20
7876;DHT22;69649;53.712;9.680;2023-05-10T00:53:44;14.60;48.40
7876;DHT22;69649;53.712;9.680;2023-05-10T00:56:10;14.60;48.20
7876;DHT22;69649;53.712;9.680;2023-05-10T00:58:36;14.50;48.80
7876;DHT22;69649;53.712;9.680;2023-05-10T01:01:02;14.40;48.90
7876;DHT22;69649;53.712;9.680;2023-05-10T01:03:28;14.30;49.40
7876;DHT22;69649;53.712;9.680;2023-05-10T01:05:55;14.30;48.90
7876;DHT22;69649;53.712;9.680;2023-05-10T01:08:21;14.30;49.50
7876;DHT22;69649;53.712;9.680;2023-05-10T01:10:47;14.20;49.60
7876;DHT22;69649;53.712;9.680;2023-05-10T01:13:30;14.20;49.70
7876;DHT22;69649;53.712;9.680;2023-05-10T01:15:46;14.20;49.30
7876;DHT22;69649;53.712;9.680;2023-05-10T01:18:12;14.10;49.70
7876;DHT22;69649;53.712;9.680;2023-05-10T01:20:41;14.10;49.60
7876;DHT22;69649;53.712;9.680;2023-05-10T01:23:36;14.00;50.00
7876;DHT22;69649;53.712;9.680;2023-05-10T01:29:19;14.00;50.10
7876;DHT22;69649;53.712;9.680;2023-05-10T01:34:29;13.90;50.50
7876;DHT22;69649;53.712;9.680;2023-05-10T01:37:10;13.80;50.70
7876;DHT22;69649;53.712;9.680;2023-05-10T01:39:50;13.80;50.50
7876;DHT22;69649;53.712;9.680;2023-05-10T01:42:21;13.70;50.50
7876;DHT22;69649;53.712;9.680;2023-05-10T01:50:19;13.60;51.10
7876;DHT22;69649;53.712;9.680;2023-05-10T01:52:50;13.60;51.00
7876;DHT22;69649;53.712;9.680;2023-05-10T01:55:18;13.60;51.30
7876;DHT22;69649;53.712;9.680;2023-05-10T01:57:46;13.60;51.10
7876;DHT22;69649;53.712;9.680;2023-05-10T02:00:14;13.60;51.30
7876;DHT22;69649;53.712;9.680;2023-05-10T02:02:44;13.50;51.20
7876;DHT22;69649;53.712;9.680;2023-05-10T02:05:12;13.50;51.40
7876;DHT22;69649;53.712;9.680;2023-05-10T02:07:38;13.50;51.40
7876;DHT22;69649;53.712;9.680;2023-05-10T02:10:06;13.50;51.60
7876;DHT22;69649;53.712;9.680;2023-05-10T02:12:35;13.50;51.70
7876;DHT22;69649;53.712;9.680;2023-05-10T02:15:04;13.50;51.70
7876;DHT22;69649;53.712;9.680;2023-05-10T02:17:31;13.50;51.60
7876;DHT22;69649;53.712;9.680;2023-05-10T02:19:58;13.40;52.00
7876;DHT22;69649;53.712;9.680;2023-05-10T02:22:26;13.40;51.90
7876;DHT22;69649;53.712;9.680;2023-05-10T02:24:55;13.40;52.10
7876;DHT22;69649;53.712;9.680;2023-05-10T02:27:23;13.40;51.90
7876;DHT22;69649;53.712;9.680;2023-05-10T02:29:50;13.50;51.80
7876;DHT22;69649;53.712;9.680;2023-05-10T02:32:17;13.40;52.20
7876;DHT22;69649;53.712;9.680;2023-05-10T02:34:44;13.50;52.00
7876;DHT22;69649;53.712;9.680;2023-05-10T02:37:15;13.50;51.90
7876;DHT22;69649;53.712;9.680;2023-05-10T02:39:44;13.30;52.00
7876;DHT22;69649;53.712;9.680;2023-05-10T02:42:15;13.30;52.20
7876;DHT22;69649;53.712;9.680;2023-05-10T02:44:42;13.30;52.20
7876;DHT22;69649;53.712;9.680;2023-05-10T02:47:08;13.30;52.20
7876;DHT22;69649;53.712;9.680;2023-05-10T02:49:34;13.30;52.50
7876;DHT22;69649;53.712;9.680;2023-05-10T02:52:01;13.10;52.70
7876;DHT22;69649;53.712;9.680;2023-05-10T02:54:31;13.10;52.70
7876;DHT22;69649;53.712;9.680;2023-05-10T02:57:00;13.10;52.80
7876;DHT22;69649;53.712;9.680;2023-05-10T02:59:26;13.10;52.80
7876;DHT22;69649;53.712;9.680;2023-05-10T03:01:52;13.10;52.50
7876;DHT22;69649;53.712;9.680;2023-05-10T03:04:18;13.10;53.00
7876;DHT22;69649;53.712;9.680;2023-05-10T03:06:44;13.10;52.90
7876;DHT22;69649;53.712;9.680;2023-05-10T03:09:11;13.10;53.10
7876;DHT22;69649;53.712;9.680;2023-05-10T03:14:34;13.00;53.00
7876;DHT22;69649;53.712;9.680;2023-05-10T03:17:07;13.00;53.10
7876;DHT22;69649;53.712;9.680;2023-05-10T03:19:57;13.10;53.10
7876;DHT22;69649;53.712;9.680;2023-05-10T03:22:26;13.00;53.20
7876;DHT22;69649;53.712;9.680;2023-05-10T03:24:56;13.00;53.10
7876;DHT22;69649;53.712;9.680;2023-05-10T03:27:25;13.00;53.50
7876;DHT22;69649;53.712;9.680;2023-05-10T03:29:53;13.00;53.30
7876;DHT22;69649;53.712;9.680;2023-05-10T03:32:20;13.00;53.50
7876;DHT22;69649;53.712;9.680;2023-05-10T03:34:46;13.00;53.20
7876;DHT22;69649;53.712;9.680;2023-05-10T03:37:11;12.90;53.60
7876;DHT22;69649;53.712;9.680;2023-05-10T03:39:37;12.90;53.70
7876;DHT22;69649;53.712;9.680;2023-05-10T03:42:03;12.90;53.80
7876;DHT22;69649;53.712;9.680;2023-05-10T03:44:29;12.80;53.90
7876;DHT22;69649;53.712;9.680;2023-05-10T03:46:55;12.80;53.90
7876;DHT22;69649;53.712;9.680;2023-05-10T03:49:22;12.80;53.80
7876;DHT22;69649;53.712;9.680;2023-05-10T03:51:48;12.80;53.40
7876;DHT22;69649;53.712;9.680;2023-05-10T03:54:14;12.80;53.70
7876;DHT22;69649;53.712;9.680;2023-05-10T03:56:40;12.80;53.90
7876;DHT22;69649;53.712;9.680;2023-05-10T03:59:06;12.80;54.00
7876;DHT22;69649;53.712;9.680;2023-05-10T04:01:34;12.80;53.60
7876;DHT22;69649;53.712;9.680;2023-05-10T04:04:00;12.80;54.10
7876;DHT22;69649;53.712;9.680;2023-05-10T04:06:26;12.80;53.80
7876;DHT22;69649;53.712;9.680;2023-05-10T04:08:51;12.80;53.90
7876;DHT22;69649;53.712;9.680;2023-05-10T04:11:17;12.80;54.20
7876;DHT22;69649;53.712;9.680;2023-05-10T04:13:45;12.80;53.90
7876;DHT22;69649;53.712;9.680;2023-05-10T04:16:11;12.70;54.20
7876;DHT22;69649;53.712;9.680;2023-05-10T04:18:36;12.80;54.40
7876;DHT22;69649;53.712;9.680;2023-05-10T04:21:02;12.80;54.00
7876;DHT22;69649;53.712;9.680;2023-05-10T04:23:28;12.90;61.20
7876;DHT22;69649;53.712;9.680;2023-05-10T04:26:01;13.30;56.30
7876;DHT22;69649;53.712;9.680;2023-05-10T04:28:27;13.60;57.20
7876;DHT22;69649;53.712;9.680;2023-05-10T04:30:52;13.90;54.00
7876;DHT22;69649;53.712;9.680;2023-05-10T04:33:18;13.90;52.80
7876;DHT22;69649;53.712;9.680;2023-05-10T04:35:44;13.60;53.10
7876;DHT22;69649;53.712;9.680;2023-05-10T04:38:10;13.50;53.50
7876;DHT22;69649;53.712;9.680;2023-05-10T04:40:36;13.30;53.50
7876;DHT22;69649;53.712;9.680;2023-05-10T04:43:02;13.20;53.70
7876;DHT22;69649;53.712;9.680;2023-05-10T04:45:28;13.10;53.70
7876;DHT22;69649;53.712;9.680;2023-05-10T04:47:54;13.10;53.90
7876;DHT22;69649;53.712;9.680;2023-05-10T04:50:19;13.00;54.00
7876;DHT22;69649;53.712;9.680;2023-05-10T04:52:45;13.10;55.00
7876;DHT22;69649;53.712;9.680;2023-05-10T04:55:11;13.10;54.00
7876;DHT22;69649;53.712;9.680;2023-05-10T04:57:37;13.10;54.00
7876;DHT22;69649;53.712;9.680;2023-05-10T05:00:03;13.10;54.30
7876;DHT22;69649;53.712;9.680;2023-05-10T05:02:29;13.10;54.10
7876;DHT22;69649;53.712;9.680;2023-05-10T05:04:55;13.10;54.40
7876;DHT22;69649;53.712;9.680;2023-05-10T05:07:23;13.20;53.70
7876;DHT22;69649;53.712;9.680;2023-05-10T05:09:49;13.20;53.90
7876;DHT22;69649;53.712;9.680;2023-05-10T05:12:15;13.30;53.90
7876;DHT22;69649;53.712;9.680;2023-05-10T05:14:41;13.30;54.20
7876;DHT22;69649;53.712;9.680;2023-05-10T05:17:06;13.30;54.00
7876;DHT22;69649;53.712;9.680;2023-05-10T05:19:33;13.30;54.00
7876;DHT22;69649;53.712;9.680;2023-05-10T05:22:06;13.30;54.00
7876;DHT22;69649;53.712;9.680;2023-05-10T05:24:36;13.30;54.10
7876;DHT22;69649;53.712;9.680;2023-05-10T05:27:05;13.30;53.90
7876;DHT22;69649;53.712;9.680;2023-05-10T05:29:31;13.30;54.00
7876;DHT22;69649;53.712;9.680;2023-05-10T05:31:57;13.40;53.80
7876;DHT22;69649;53.712;9.680;2023-05-10T05:34:25;13.40;53.90
7876;DHT22;69649;53.712;9.680;2023-05-10T05:36:52;13.50;53.60
7876;DHT22;69649;53.712;9.680;2023-05-10T05:39:18;13.60;53.80
7876;DHT22;69649;53.712;9.680;2023-05-10T05:41:43;13.60;53.40
7876;DHT22;69649;53.712;9.680;2023-05-10T05:44:09;13.50;53.50
7876;DHT22;69649;53.712;9.680;2023-05-10T05:46:35;13.50;54.00
7876;DHT22;69649;53.712;9.680;2023-05-10T05:49:01;13.60;54.40
7876;DHT22;69649;53.712;9.680;2023-05-10T05:51:27;13.70;53.60
7876;DHT22;69649;53.712;9.680;2023-05-10T05:53:53;13.80;53.40
7876;DHT22;69649;53.712;9.680;2023-05-10T05:56:19;13.70;53.50
7876;DHT22;69649;53.712;9.680;2023-05-10T05:58:46;13.90;53.60
7876;DHT22;69649;53.712;9.680;2023-05-10T06:01:13;13.90;53.30
7876;DHT22;69649;53.712;9.680;2023-05-10T06:03:38;13.90;53.30
7876;DHT22;69649;53.712;9.680;2023-05-10T06:06:04;14.00;53.20
7876;DHT22;69649;53.712;9.680;2023-05-10T06:08:30;14.10;53.10
7876;DHT22;69649;53.712;9.680;2023-05-10T06:10:56;14.10;53.30
7876;DHT22;69649;53.712;9.680;2023-05-10T06:13:22;14.20;53.30
7876;DHT22;69649;53.712;9.680;2023-05-10T06:15:47;14.10;52.80
7876;DHT22;69649;53.712;9.680;2023-05-10T06:18:13;14.10;53.10
7876;DHT22;69649;53.712;9.680;2023-05-10T06:20:41;14.30;53.00
7876;DHT22;69649;53.712;9.680;2023-05-10T06:23:07;14.30;53.00
7876;DHT22;69649;53.712;9.680;2023-05-10T06:25:33;14.40;52.80
7876;DHT22;69649;53.712;9.680;2023-05-10T06:27:58;14.40;52.50
7876;DHT22;69649;53.712;9.680;2023-05-10T06:30:25;14.40;52.50
7876;DHT22;69649;53.712;9.680;2023-05-10T06:32:53;14.50;52.40
7876;DHT22;69649;53.712;9.680;2023-05-10T06:35:19;14.50;52.50
7876;DHT22;69649;53.712;9.680;2023-05-10T06:37:44;14.60;52.60
7876;DHT22;69649;53.712;9.680;2023-05-10T06:40:12;14.60;52.50
7876;DHT22;69649;53.712;9.680;2023-05-10T06:42:38;14.70;52.60
7876;DHT22;69649;53.712;9.680;2023-05-10T06:45:04;14.70;52.80
7876;DHT22;69649;53.712;9.680;2023-05-10T06:47:31;14.80;52.60
7876;DHT22;69649;53.712;9.680;2023-05-10T06:49:57;14.80;52.70
7876;DHT22;69649;53.712;9.680;2023-05-10T06:52:22;14.90;52.70
7876;DHT22;69649;53.712;9.680;2023-05-10T06:54:48;14.90;52.50
7876;DHT22;69649;53.712;9.680;2023-05-10T06:57:14;14.90;52.50
7876;DHT22;69649;53.712;9.680;2023-05-10T06:59:40;14.90;52.30
7876;DHT22;69649;53.712;9.680;2023-05-10T07:02:05;15.00;52.20
7876;DHT22;69649;53.712;9.680;2023-05-10T07:04:31;15.00;52.20
7876;DHT22;69649;53.712;9.680;2023-05-10T07:06:57;15.00;52.20
7876;DHT22;69649;53.712;9.680;2023-05-10T07:09:23;15.20;52.60
7876;DHT22;69649;53.712;9.680;2023-05-10T07:11:49;15.30;52.50
7876;DHT22;69649;53.712;9.680;2023-05-10T07:14:15;15.30;52.10
7876;DHT22;69649;53.712;9.680;2023-05-10T07:16:41;15.30;52.10
7876;DHT22;69649;53.712;9.680;2023-05-10T07:19:06;15.50;52.10
7876;DHT22;69649;53.712;9.680;2023-05-10T07:21:32;15.50;52.00
7876;DHT22;69649;53.712;9.680;2023-05-10T07:23:58;15.60;51.90
7876;DHT22;69649;53.712;9.680;2023-05-10T07:26:26;15.60;51.70
7876;DHT22;69649;53.712;9.680;2023-05-10T07:28:51;15.70;51.90
7876;DHT22;69649;53.712;9.680;2023-05-10T07:31:17;15.80;51.40
7876;DHT22;69649;53.712;9.680;2023-05-10T07:33:43;15.80;51.50
7876;DHT22;69649;53.712;9.680;2023-05-10T07:36:09;15.80;51.40
7876;DHT22;69649;53.712;9.680;2023-05-10T07:38:34;16.00;52.10
7876;DHT22;69649;53.712;9.680;2023-05-10T07:41:00;16.00;51.50
7876;DHT22;69649;53.712;9.680;2023-05-10T07:43:26;16.00;51.40
7876;DHT22;69649;53.712;9.680;2023-05-10T07:45:51;15.90;51.20
7876;DHT22;69649;53.712;9.680;2023-05-10T07:48:18;16.00;51.40
7876;DHT22;69649;53.712;9.680;2023-05-10T07:50:43;16.00;51.20
7876;DHT22;69649;53.712;9.680;2023-05-10T07:53:09;16.00;51.50
7876;DHT22;69649;53.712;9.680;2023-05-10T07:55:35;16.00;51.90
7876;DHT22;69649;53.712;9.680;2023-05-10T07:58:01;16.10;51.80
7876;DHT22;69649;53.712;9.680;2023-05-10T08:00:27;16.20;51.50
7876;DHT22;69649;53.712;9.680;2023-05-10T08:02:52;16.20;52.10
7876;DHT22;69649;53.712;9.680;2023-05-10T08:05:18;16.30;51.70
7876;DHT22;69649;53.712;9.680;2023-05-10T08:07:44;16.40;51.40
7876;DHT22;69649;53.712;9.680;2023-05-10T08:10:10;16.30;51.40
7876;DHT22;69649;53.712;9.680;2023-05-10T08:12:39;16.20;51.70
7876;DHT22;69649;53.712;9.680;2023-05-10T08:15:05;16.00;52.20
7876;DHT22;69649;53.712;9.680;2023-05-10T08:17:32;16.00;53.10
7876;DHT22;69649;53.712;9.680;2023-05-10T08:19:57;15.90;53.30
7876;DHT22;69649;53.712;9.680;2023-05-10T08:22:23;15.80;54.20
7876;DHT22;69649;53.712;9.680;2023-05-10T08:24:50;15.80;55.20
7876;DHT22;69649;53.712;9.680;2023-05-10T08:27:16;15.70;54.90
7876;DHT22;69649;53.712;9.680;2023-05-10T08:29:41;15.80;55.40
7876;DHT22;69649;53.712;9.680;2023-05-10T08:32:07;15.90;55.90
7876;DHT22;69649;53.712;9.680;2023-05-10T08:34:33;15.80;55.40
7876;DHT22;69649;53.712;9.680;2023-05-10T08:36:59;15.60;55.90
7876;DHT22;69649;53.712;9.680;2023-05-10T08:39:24;15.50;55.80
7876;DHT22;69649;53.712;9.680;2023-05-10T08:41:51;15.40;56.70
7876;DHT22;69649;53.712;9.680;2023-05-10T08:44:19;15.30;57.10
7876;DHT22;69649;53.712;9.680;2023-05-10T08:46:46;15.30;57.90
7876;DHT22;69649;53.712;9.680;2023-05-10T08:49:16;15.30;57.70
7876;DHT22;69649;53.712;9.680;2023-05-10T08:51:47;15.00;57.70
7876;DHT22;69649;53.712;9.680;2023-05-10T08:54:18;14.70;57.70
7876;DHT22;69649;53.712;9.680;2023-05-10T08:56:44;14.60;58.00
7876;DHT22;69649;53.712;9.680;2023-05-10T08:59:10;14.70;59.10
7876;DHT22;69649;53.712;9.680;2023-05-10T09:01:38;14.80;58.50
7876;DHT22;69649;53.712;9.680;2023-05-10T09:04:04;14.90;59.00
7876;DHT22;69649;53.712;9.680;2023-05-10T09:06:29;14.90;59.00
7876;DHT22;69649;53.712;9.680;2023-05-10T09:08:55;14.90;59.20
7876;DHT22;69649;53.712;9.680;2023-05-10T09:11:21;14.80;59.20
7876;DHT22;69649;53.712;9.680;2023-05-10T09:13:50;14.60;60.00
7876;DHT22;69649;53.712;9.680;2023-05-10T09:16:16;14.60;61.00
7876;DHT22;69649;53.712;9.680;2023-05-10T09:18:42;14.50;59.70
7876;DHT22;69649;53.712;9.680;2023-05-10T09:21:09;14.40;59.30
7876;DHT22;69649;53.712;9.680;2023-05-10T09:23:35;14.40;59.70
7876;DHT22;69649;53.712;9.680;2023-05-10T09:26:05;14.40;60.30
7876;DHT22;69649;53.712;9.680;2023-05-10T09:28:32;14.40;59.70
7876;DHT22;69649;53.712;9.680;2023-05-10T09:30:58;14.40;60.00
7876;DHT22;69649;53.712;9.680;2023-05-10T09:33:25;14.40;59.70
7876;DHT22;69649;53.712;9.680;2023-05-10T09:35:52;14.30;60.40
7876;DHT22;69649;53.712;9.680;2023-05-10T09:38:17;14.40;60.80
7876;DHT22;69649;53.712;9.680;2023-05-10T09:40:50;14.30;60.40
7876;DHT22;69649;53.712;9.680;2023-05-10T09:43:13;14.30;60.60
7876;DHT22;69649;53.712;9.680;2023-05-10T09:45:40;14.10;61.40
7876;DHT22;69649;53.712;9.680;2023-05-10T09:48:06;14.00;62.50
7876;DHT22;69649;53.712;9.680;2023-05-10T09:50:32;13.90;63.20
7876;DHT22;69649;53.712;9.680;2023-05-10T09:53:02;13.70;63.30
7876;DHT22;69649;53.712;9.680;2023-05-10T09:55:40;13.60;64.40
7876;DHT22;69649;53.712;9.680;2023-05-10T09:58:07;13.50;63.90
7876;DHT22;69649;53.712;9.680;2023-05-10T10:00:42;13.50;64.80
7876;DHT22;69649;53.712;9.680;2023-05-10T10:03:16;13.70;64.70
7876;DHT22;69649;53.712;9.680;2023-05-10T10:05:43;13.60;65.00
7876;DHT22;69649;53.712;9.680;2023-05-10T10:08:10;13.50;67.20
7876;DHT22;69649;53.712;9.680;2023-05-10T10:10:37;13.30;67.00
7876;DHT22;69649;53.712;9.680;2023-05-10T10:13:05;13.50;67.90
7876;DHT22;69649;53.712;9.680;2023-05-10T10:15:32;13.50;69.50
7876;DHT22;69649;53.712;9.680;2023-05-10T10:17:59;13.60;69.30
7876;DHT22;69649;53.712;9.680;2023-05-10T10:20:26;13.80;68.20
7876;DHT22;69649;53.712;9.680;2023-05-10T10:22:53;13.80;68.60
7876;DHT22;69649;53.712;9.680;2023-05-10T10:25:20;13.70;70.40
7876;DHT22;69649;53.712;9.680;2023-05-10T10:30:39;13.50;71.30
7876;DHT22;69649;53.712;9.680;2023-05-10T10:33:36;13.30;70.60
7876;DHT22;69649;53.712;9.680;2023-05-10T10:35:46;13.50;70.60
7876;DHT22;69649;53.712;9.680;2023-05-10T10:38:13;13.20;70.50
7876;DHT22;69649;53.712;9.680;2023-05-10T10:40:39;13.10;71.30
7876;DHT22;69649;53.712;9.680;2023-05-10T10:43:23;13.10;71.50
7876;DHT22;69649;53.712;9.680;2023-05-10T10:49:28;13.10;73.20
7876;DHT22;69649;53.712;9.680;2023-05-10T10:51:13;13.10;72.90
7876;DHT22;69649;53.712;9.680;2023-05-10T10:53:40;13.20;73.40
7876;DHT22;69649;53.712;9.680;2023-05-10T10:56:11;13.00;73.10
7876;DHT22;69649;53.712;9.680;2023-05-10T10:58:39;13.10;73.80
7876;DHT22;69649;53.712;9.680;2023-05-10T11:01:17;13.20;74.00
7876;DHT22;69649;53.712;9.680;2023-05-10T11:03:55;13.10;72.70
7876;DHT22;69649;53.712;9.680;2023-05-10T11:06:34;13.10;73.30
7876;DHT22;69649;53.712;9.680;2023-05-10T11:08:58;13.00;73.40
7876;DHT22;69649;53.712;9.680;2023-05-10T11:11:23;13.10;73.00
7876;DHT22;69649;53.712;9.680;2023-05-10T11:13:49;12.90;73.60
7876;DHT22;69649;53.712;9.680;2023-05-10T11:16:19;12.80;73.90
7876;DHT22;69649;53.712;9.680;2023-05-10T11:19:07;12.60;74.50
7876;DHT22;69649;53.712;9.680;2023-05-10T11:21:33;12.50;74.80
7876;DHT22;69649;53.712;9.680;2023-05-10T11:24:01;12.70;75.10
7876;DHT22;69649;53.712;9.680;2023-05-10T11:26:34;12.50;75.40
7876;DHT22;69649;53.712;9.680;2023-05-10T11:29:00;12.50;75.20
7876;DHT22;69649;53.712;9.680;2023-05-10T11:31:28;12.50;75.20
7876;DHT22;69649;53.712;9.680;2023-05-10T11:33:57;12.50;75.50
7876;DHT22;69649;53.712;9.680;2023-05-10T11:36:25;12.30;76.50
7876;DHT22;69649;53.712;9.680;2023-05-10T11:38:51;12.30;77.20
7876;DHT22;69649;53.712;9.680;2023-05-10T11:41:19;12.10;77.60
7876;DHT22;69649;53.712;9.680;2023-05-10T11:43:52;12.20;77.70
7876;DHT22;69649;53.712;9.680;2023-05-10T11:46:20;12.10;78.20
7876;DHT22;69649;53.712;9.680;2023-05-10T11:48:51;12.30;77.70
7876;DHT22;69649;53.712;9.680;2023-05-10T11:51:22;12.40;77.60
7876;DHT22;69649;53.712;9.680;2023-05-10T11:53:50;12.50;77.90
7876;DHT22;69649;53.712;9.680;2023-05-10T11:56:16;12.70;77.70
7876;DHT22;69649;53.712;9.680;2023-05-10T11:58:42;12.80;77.50
7876;DHT22;69649;53.712;9.680;2023-05-10T12:01:08;12.80;77.20
7876;DHT22;69649;53.712;9.680;2023-05-10T12:03:36;12.90;76.80
7876;DHT22;69649;53.712;9.680;2023-05-10T12:06:03;12.90;77.10
7876;DHT22;69649;53.712;9.680;2023-05-10T12:08:30;12.90;76.70
7876;DHT22;69649;53.712;9.680;2023-05-10T12:11:07;13.00;75.90
7876;DHT22;69649;53.712;9.680;2023-05-10T12:13:38;12.90;76.20
7876;DHT22;69649;53.712;9.680;2023-05-10T12:16:17;13.10;76.50
7876;DHT22;69649;53.712;9.680;2023-05-10T12:18:44;13.30;75.60
7876;DHT22;69649;53.712;9.680;2023-05-10T12:21:10;13.40;75.60
7876;DHT22;69649;53.712;9.680;2023-05-10T12:23:38;13.50;75.30
7876;DHT22;69649;53.712;9.680;2023-05-10T12:26:04;13.60;75.80
7876;DHT22;69649;53.712;9.680;2023-05-10T12:28:30;13.70;75.40
7876;DHT22;69649;53.712;9.680;2023-05-10T12:30:58;13.70;75.10
7876;DHT22;69649;53.712;9.680;2023-05-10T12:33:25;13.80;74.70
7876;DHT22;69649;53.712;9.680;2023-05-10T12:35:52;13.70;74.10
7876;DHT22;69649;53.712;9.680;2023-05-10T12:38:29;13.90;74.50
7876;DHT22;69649;53.712;9.680;2023-05-10T12:40:57;14.00;74.50
7876;DHT22;69649;53.712;9.680;2023-05-10T12:43:23;14.10;75.00
7876;DHT22;69649;53.712;9.680;2023-05-10T12:45:49;14.20;75.20
7876;DHT22;69649;53.712;9.680;2023-05-10T12:48:15;14.40;73.80
7876;DHT22;69649;53.712;9.680;2023-05-10T12:50:41;14.50;74.00
7876;DHT22;69649;53.712;9.680;2023-05-10T12:53:06;14.60;72.60
7876;DHT22;69649;53.712;9.680;2023-05-10T12:55:32;14.80;72.90
7876;DHT22;69649;53.712;9.680;2023-05-10T12:57:58;14.90;73.60
7876;DHT22;69649;53.712;9.680;2023-05-10T13:00:24;15.00;73.00
7876;DHT22;69649;53.712;9.680;2023-05-10T13:02:50;15.60;70.80
7876;DHT22;69649;53.712;9.680;2023-05-10T13:05:15;15.80;70.20
7876;DHT22;69649;53.712;9.680;2023-05-10T13:07:41;15.90;70.00
7876;DHT22;69649;53.712;9.680;2023-05-10T13:10:09;16.10;70.60
7876;DHT22;69649;53.712;9.680;2023-05-10T13:12:35;16.10;69.70
7876;DHT22;69649;53.712;9.680;2023-05-10T13:15:02;16.30;69.10
7876;DHT22;69649;53.712;9.680;2023-05-10T13:17:28;16.40;68.60
7876;DHT22;69649;53.712;9.680;2023-05-10T13:19:54;16.60;68.30
7876;DHT22;69649;53.712;9.680;2023-05-10T13:22:20;16.60;68.00
7876;DHT22;69649;53.712;9.680;2023-05-10T13:24:46;16.50;67.60
7876;DHT22;69649;53.712;9.680;2023-05-10T13:27:12;16.60;68.00
7876;DHT22;69649;53.712;9.680;2023-05-10T13:32:03;16.40;67.80
7876;DHT22;69649;53.712;9.680;2023-05-10T13:34:29;16.20;68.30
7876;DHT22;69649;53.712;9.680;2023-05-10T13:36:54;16.30;68.70
7876;DHT22;69649;53.712;9.680;2023-05-10T13:39:22;16.40;68.80
7876;DHT22;69649;53.712;9.680;2023-05-10T13:41:48;16.20;68.70
7876;DHT22;69649;53.712;9.680;2023-05-10T13:44:14;16.00;68.80
7876;DHT22;69649;53.712;9.680;2023-05-10T13:46:41;15.70;68.80
7876;DHT22;69649;53.712;9.680;2023-05-10T13:49:09;15.70;69.30
7876;DHT22;69649;53.712;9.680;2023-05-10T13:51:35;15.80;69.40
7876;DHT22;69649;53.712;9.680;2023-05-10T13:54:02;15.60;69.20
7876;DHT22;69649;53.712;9.680;2023-05-10T13:56:29;15.80;69.40
7876;DHT22;69649;53.712;9.680;2023-05-10T13:58:56;15.80;68.90
7876;DHT22;69649;53.712;9.680;2023-05-10T14:01:23;15.90;69.20
7876;DHT22;69649;53.712;9.680;2023-05-10T14:03:49;15.80;69.20
7876;DHT22;69649;53.712;9.680;2023-05-10T14:06:15;16.00;69.00
7876;DHT22;69649;53.712;9.680;2023-05-10T14:08:41;16.00;68.30
7876;DHT22;69649;53.712;9.680;2023-05-10T14:11:07;16.00;68.60
7876;DHT22;69649;53.712;9.680;2023-05-10T14:13:33;16.00;68.70
7876;DHT22;69649;53.712;9.680;2023-05-10T14:15:59;16.10;68.30
7876;DHT22;69649;53.712;9.680;2023-05-10T14:18:28;16.30;68.60
7876;DHT22;69649;53.712;9.680;2023-05-10T14:20:53;16.60;67.30
7876;DHT22;69649;53.712;9.680;2023-05-10T14:23:20;16.50;67.70
7876;DHT22;69649;53.712;9.680;2023-05-10T14:25:47;16.60;67.20
7876;DHT22;69649;53.712;9.680;2023-05-10T14:28:13;16.60;67.30
7876;DHT22;69649;53.712;9.680;2023-05-10T14:30:39;16.70;66.70
7876;DHT22;69649;53.712;9.680;2023-05-10T14:33:05;16.90;66.90
7876;DHT22;69649;53.712;9.680;2023-05-10T14:35:31;16.80;66.30
7876;DHT22;69649;53.712;9.680;2023-05-10T14:37:57;16.80;66.70
7876;DHT22;69649;53.712;9.680;2023-05-10T14:40:23;16.50;66.70
7876;DHT22;69649;53.712;9.680;2023-05-10T14:42:50;16.10;67.90
7876;DHT22;69649;53.712;9.680;2023-05-10T14:45:16;16.10;68.30
7876;DHT22;69649;53.712;9.680;2023-05-10T14:47:42;16.20;67.80
7876;DHT22;69649;53.712;9.680;2023-05-10T14:50:08;16.40;67.40
7876;DHT22;69649;53.712;9.680;2023-05-10T14:52:34;16.50;67.50
7876;DHT22;69649;53.712;9.680;2023-05-10T14:55:00;16.60;67.30
7876;DHT22;69649;53.712;9.680;2023-05-10T14:57:27;16.70;66.90
7876;DHT22;69649;53.712;9.680;2023-05-10T14:59:54;16.70;66.70
7876;DHT22;69649;53.712;9.680;2023-05-10T15:02:21;16.60;67.10
7876;DHT22;69649;53.712;9.680;2023-05-10T15:04:47;16.60;67.40
7876;DHT22;69649;53.712;9.680;2023-05-10T15:07:12;16.60;66.60
7876;DHT22;69649;53.712;9.680;2023-05-10T15:09:40;16.70;68.00
7876;DHT22;69649;53.712;9.680;2023-05-10T15:12:06;16.90;67.10
7876;DHT22;69649;53.712;9.680;2023-05-10T15:14:31;17.00;66.30
7876;DHT22;69649;53.712;9.680;2023-05-10T15:16:59;17.00;66.00
7876;DHT22;69649;53.712;9.680;2023-05-10T15:19:25;17.00;66.10
7876;DHT22;69649;53.712;9.680;2023-05-10T15:21:51;17.00;66.30
7876;DHT22;69649;53.712;9.680;2023-05-10T15:24:16;17.00;66.40
7876;DHT22;69649;53.712;9.680;2023-05-10T15:26:42;16.90;66.10
7876;DHT22;69649;53.712;9.680;2023-05-10T15:29:08;16.80;66.50
7876;DHT22;69649;53.712;9.680;2023-05-10T15:31:34;16.80;66.60
7876;DHT22;69649;53.712;9.680;2023-05-10T15:34:02;16.60;67.50
7876;DHT22;69649;53.712;9.680;2023-05-10T15:36:28;16.50;67.90
7876;DHT22;69649;53.712;9.680;2023-05-10T15:38:54;16.40;68.30
7876;DHT22;69649;53.712;9.680;2023-05-10T15:41:20;16.40;69.70
7876;DHT22;69649;53.712;9.680;2023-05-10T15:43:46;16.40;69.90
7876;DHT22;69649;53.712;9.680;2023-05-10T15:46:12;16.10;71.20
7876;DHT22;69649;53.712;9.680;2023-05-10T15:48:37;15.80;72.70
7876;DHT22;69649;53.712;9.680;2023-05-10T15:51:04;15.80;73.30
7876;DHT22;69649;53.712;9.680;2023-05-10T15:53:30;15.60;73.70
7876;DHT22;69649;53.712;9.680;2023-05-10T15:55:56;15.50;73.90
7876;DHT22;69649;53.712;9.680;2023-05-10T15:58:22;15.60;74.20
7876;DHT22;69649;53.712;9.680;2023-05-10T16:00:48;15.60;73.50
7876;DHT22;69649;53.712;9.680;2023-05-10T16:03:14;15.70;74.50
7876;DHT22;69649;53.712;9.680;2023-05-10T16:05:40;15.60;73.40